Time;durP1;ratioP1;P1;durP2;ratioP2;P2;SDS_P1;SDS_P2;PMS_P1;PMS_P2;Temp;Humidity;BMP_temperature;BMP_pressure;BME280_temperature;BME280_humidity;BME280_pressure;Samples;Min_cycle;Max_cycle;Signal;HPM_P1;HPM_P2
2021/09/24 00:00:12;;;;;;;6.80;3.88;;;;;;;;;;4937642;28;20180;-68
2021/09/24 00:02:38;;;;;;;5.03;2.40;;;;;;;;;;4952671;28;20223;-68
2021/09/24 00:05:03;;;;;;;13.07;3.70;;;;;;;;;;4969780;28;20180;-68
2021/09/24 00:07:28;;;;;;;7.45;2.92;;;;;;;;;;4963683;28;20204;-68
2021/09/24 00:09:54;;;;;;;5.95;2.83;;;;;;;;;;4969605;28;20236;-68
2021/09/24 00:12:19;;;;;;;10.82;2.72;;;;;;;;;;4971180;28;20184;-69
2021/09/24 00:14:44;;;;;;;8.18;2.80;;;;;;;;;;4971974;28;20183;-69
2021/09/24 00:17:09;;;;;;;5.70;2.60;;;;;;;;;;4977796;28;20208;-68
2021/09/24 00:19:35;;;;;;;10.68;3.22;;;;;;;;;;4965609;28;20184;-69
2021/09/24 00:22:00;;;;;;;7.90;3.25;;;;;;;;;;4968346;28;20184;-68
2021/09/24 00:24:25;;;;;;;4.68;3.15;;;;;;;;;;4966868;28;22366;-68
2021/09/24 00:26:50;;;;;;;6.35;3.05;;;;;;;;;;4964919;28;20729;-68
2021/09/24 00:29:16;;;;;;;9.18;3.20;;;;;;;;;;4972516;28;20646;-69
2021/09/24 00:31:41;;;;;;;5.70;2.67;;;;;;;;;;4970635;28;20180;-68
2021/09/24 00:34:06;;;;;;;7.30;2.42;;;;;;;;;;4969474;28;20533;-68
2021/09/24 00:36:31;;;;;;;6.13;3.25;;;;;;;;;;4968478;28;20200;-68
2021/09/24 00:38:57;;;;;;;9.23;3.10;;;;;;;;;;4961537;28;20209;-68
2021/09/24 00:41:22;;;;;;;5.97;3.20;;;;;;;;;;4970869;28;20184;-69
2021/09/24 00:43:47;;;;;;;4.82;2.72;;;;;;;;;;4974273;28;20255;-68
2021/09/24 00:46:12;;;;;;;4.25;2.80;;;;;;;;;;4970711;28;20628;-68
2021/09/24 00:48:37;;;;;;;6.63;2.95;;;;;;;;;;4971610;28;20207;-68
2021/09/24 00:51:03;;;;;;;5.37;2.77;;;;;;;;;;4951203;28;20252;-68
2021/09/24 00:53:30;;;;;;;5.85;2.78;;;;;;;;;;4954668;28;20453;-67
2021/09/24 00:55:55;;;;;;;9.60;3.03;;;;;;;;;;4956747;28;21670;-68
2021/09/24 00:58:21;;;;;;;8.40;2.58;;;;;;;;;;4953048;28;20736;-68
2021/09/24 01:00:46;;;;;;;6.00;2.58;;;;;;;;;;4955972;28;20187;-68
2021/09/24 01:03:11;;;;;;;6.53;2.77;;;;;;;;;;4951671;28;20181;-68
2021/09/24 01:05:36;;;;;;;5.63;2.95;;;;;;;;;;4952606;28;20434;-68
2021/09/24 01:08:01;;;;;;;3.55;2.60;;;;;;;;;;4952289;28;20693;-68
2021/09/24 01:10:27;;;;;;;12.30;3.30;;;;;;;;;;4953664;28;20204;-68
2021/09/24 01:12:52;;;;;;;7.20;2.75;;;;;;;;;;4952072;28;20242;-68
2021/09/24 01:15:18;;;;;;;5.35;2.70;;;;;;;;;;4951341;28;21696;-68
2021/09/24 01:17:44;;;;;;;7.05;4.53;;;;;;;;;;4951954;28;20756;-68
2021/09/24 01:20:11;;;;;;;10.23;3.58;;;;;;;;;;4953721;28;20206;-69
2021/09/24 01:22:36;;;;;;;6.93;2.70;;;;;;;;;;4953836;28;20211;-68
2021/09/24 01:25:01;;;;;;;5.70;3.28;;;;;;;;;;4956380;28;20319;-69
2021/09/24 01:27:27;;;;;;;6.57;2.80;;;;;;;;;;4953249;28;20678;-69
2021/09/24 01:29:55;;;;;;;8.45;3.33;;;;;;;;;;4951474;28;20200;-68
2021/09/24 01:32:21;;;;;;;7.38;2.80;;;;;;;;;;4953660;28;20184;-68
2021/09/24 01:34:46;;;;;;;4.88;2.70;;;;;;;;;;4948603;28;20509;-69
2021/09/24 01:37:11;;;;;;;11.73;3.47;;;;;;;;;;4955612;28;20598;-68
2021/09/24 01:39:36;;;;;;;6.60;3.08;;;;;;;;;;4943944;28;20779;-69
2021/09/24 01:42:01;;;;;;;5.07;3.72;;;;;;;;;;4935909;28;20219;-68
2021/09/24 01:44:27;;;;;;;9.90;3.58;;;;;;;;;;4954738;28;20232;-68
2021/09/24 01:46:53;;;;;;;9.60;3.58;;;;;;;;;;4956094;28;20784;-68
2021/09/24 01:49:18;;;;;;;6.93;3.17;;;;;;;;;;4951318;28;20666;-69
2021/09/24 01:51:44;;;;;;;7.82;2.88;;;;;;;;;;4952843;28;20558;-69
2021/09/24 01:54:10;;;;;;;4.93;3.05;;;;;;;;;;4950026;28;20317;-69
2021/09/24 01:56:35;;;;;;;5.50;3.63;;;;;;;;;;4952041;28;20337;-68
2021/09/24 01:59:00;;;;;;;6.00;3.28;;;;;;;;;;4951339;28;20259;-69
2021/09/24 02:01:26;;;;;;;7.43;3.50;;;;;;;;;;4949809;28;20291;-69
2021/09/24 02:03:51;;;;;;;7.10;3.67;;;;;;;;;;4952101;28;20431;-69
2021/09/24 02:06:16;;;;;;;8.20;3.27;;;;;;;;;;4950762;28;20689;-69
2021/09/24 02:08:41;;;;;;;5.30;3.67;;;;;;;;;;4950242;28;20600;-68
2021/09/24 02:11:10;;;;;;;7.47;3.80;;;;;;;;;;4951618;28;20433;-68
2021/09/24 02:13:36;;;;;;;16.20;6.80;;;;;;;;;;4926724;28;20196;-68
2021/09/24 02:16:01;;;;;;;11.68;5.22;;;;;;;;;;4952632;28;20231;-69
2021/09/24 02:18:26;;;;;;;8.02;4.68;;;;;;;;;;4955187;28;20192;-69
2021/09/24 02:20:51;;;;;;;9.03;4.83;;;;;;;;;;4954407;28;20898;-69
2021/09/24 02:23:16;;;;;;;13.30;6.97;;;;;;;;;;4950164;28;20509;-69
2021/09/24 02:25:41;;;;;;;13.35;7.85;;;;;;;;;;4938517;28;20852;-69
2021/09/24 02:28:07;;;;;;;13.13;8.13;;;;;;;;;;4950020;28;20258;-69
2021/09/24 02:30:32;;;;;;;14.90;7.83;;;;;;;;;;4950501;28;20442;-69
2021/09/24 02:32:57;;;;;;;13.35;9.02;;;;;;;;;;4949305;28;20460;-67
2021/09/24 02:35:22;;;;;;;16.67;9.90;;;;;;;;;;4955605;28;20207;-69
2021/09/24 02:37:47;;;;;;;13.70;9.40;;;;;;;;;;4951212;28;20465;-69
2021/09/24 02:40:13;;;;;;;11.43;8.70;;;;;;;;;;4958346;28;20612;-68
2021/09/24 02:42:38;;;;;;;15.07;9.48;;;;;;;;;;4949682;28;20637;-68
2021/09/24 02:45:04;;;;;;;13.45;9.82;;;;;;;;;;4950845;28;20275;-68
2021/09/24 02:47:29;;;;;;;20.83;13.10;;;;;;;;;;4948766;28;20322;-69
2021/09/24 02:49:54;;;;;;;17.42;12.48;;;;;;;;;;4951655;28;20589;-69
2021/09/24 02:52:20;;;;;;;18.88;13.15;;;;;;;;;;4959361;28;20303;-69
2021/09/24 02:54:45;;;;;;;17.55;12.52;;;;;;;;;;4960659;28;20290;-69
2021/09/24 02:57:10;;;;;;;22.27;13.40;;;;;;;;;;4940031;28;20207;-68
2021/09/24 02:59:36;;;;;;;17.50;12.35;;;;;;;;;;4949938;28;20661;-69
2021/09/24 03:02:01;;;;;;;17.23;13.40;;;;;;;;;;4953022;28;20180;-68
2021/09/24 03:04:26;;;;;;;16.20;13.35;;;;;;;;;;4951536;28;20184;-68
2021/09/24 03:06:51;;;;;;;17.00;12.80;;;;;;;;;;4955476;28;20185;-68
2021/09/24 03:09:17;;;;;;;13.90;11.10;;;;;;;;;;4949762;28;20771;-68
2021/09/24 03:11:42;;;;;;;23.33;14.40;;;;;;;;;;4949035;28;21322;-69
2021/09/24 03:14:08;;;;;;;17.30;12.10;;;;;;;;;;4949850;28;20250;-68
2021/09/24 03:16:33;;;;;;;19.88;13.25;;;;;;;;;;4952470;28;20275;-67
2021/09/24 03:18:58;;;;;;;17.02;11.77;;;;;;;;;;4948892;28;20200;-69
2021/09/24 03:21:24;;;;;;;20.08;15.10;;;;;;;;;;4951689;28;20597;-68
2021/09/24 03:23:49;;;;;;;20.85;13.65;;;;;;;;;;4951510;28;20267;-68
2021/09/24 03:26:16;;;;;;;17.70;12.63;;;;;;;;;;4953668;28;20884;-68
2021/09/24 03:28:42;;;;;;;20.40;15.40;;;;;;;;;;4949713;28;20247;-68
2021/09/24 03:31:07;;;;;;;25.73;17.88;;;;;;;;;;4955093;28;20188;-68
2021/09/24 03:33:32;;;;;;;25.08;17.90;;;;;;;;;;4951078;28;20213;-69
2021/09/24 03:35:58;;;;;;;31.98;20.65;;;;;;;;;;4957423;28;20262;-68
2021/09/24 03:38:23;;;;;;;39.67;27.20;;;;;;;;;;4948805;28;20220;-68
2021/09/24 03:40:48;;;;;;;49.10;29.80;;;;;;;;;;4952354;28;20195;-68
2021/09/24 03:43:13;;;;;;;46.92;30.77;;;;;;;;;;4952844;28;20192;-68
2021/09/24 03:45:38;;;;;;;57.38;34.83;;;;;;;;;;4954882;28;20181;-69
2021/09/24 03:48:04;;;;;;;60.65;34.47;;;;;;;;;;4949694;28;20219;-69
2021/09/24 03:50:29;;;;;;;60.65;35.00;;;;;;;;;;4951383;28;20191;-68
2021/09/24 03:52:55;;;;;;;63.50;38.65;;;;;;;;;;4950748;28;20184;-68
2021/09/24 03:55:20;;;;;;;75.10;38.50;;;;;;;;;;4953877;28;20643;-69
2021/09/24 03:57:46;;;;;;;75.18;40.90;;;;;;;;;;4955558;28;20212;-69
2021/09/24 04:00:12;;;;;;;77.35;39.80;;;;;;;;;;4940344;28;20180;-69
2021/09/24 04:02:37;;;;;;;65.25;38.97;;;;;;;;;;4969082;28;20184;-69
2021/09/24 04:05:02;;;;;;;72.28;39.40;;;;;;;;;;4975181;28;20659;-69
2021/09/24 04:07:27;;;;;;;79.90;42.20;;;;;;;;;;4957419;28;20224;-69
2021/09/24 04:09:52;;;;;;;74.57;39.47;;;;;;;;;;4953661;28;20700;-69
2021/09/24 04:12:18;;;;;;;79.03;39.37;;;;;;;;;;4957429;28;20434;-68
2021/09/24 04:14:43;;;;;;;78.70;40.00;;;;;;;;;;4939834;28;21023;-69
2021/09/24 04:17:08;;;;;;;67.53;38.77;;;;;;;;;;4956977;28;20224;-68
2021/09/24 04:19:33;;;;;;;83.97;41.13;;;;;;;;;;4946595;28;20425;-68
2021/09/24 04:21:58;;;;;;;79.65;41.72;;;;;;;;;;4959863;28;20192;-69
2021/09/24 04:24:24;;;;;;;79.68;42.40;;;;;;;;;;4937538;28;21009;-68
2021/09/24 04:26:49;;;;;;;81.60;39.25;;;;;;;;;;4958983;28;20231;-68
2021/09/24 04:29:14;;;;;;;83.88;39.88;;;;;;;;;;4953506;28;20184;-68
2021/09/24 04:31:39;;;;;;;89.80;40.47;;;;;;;;;;4955147;28;20196;-69
2021/09/24 04:34:04;;;;;;;68.63;39.05;;;;;;;;;;4958044;28;20444;-69
2021/09/24 04:36:30;;;;;;;88.53;40.25;;;;;;;;;;4955658;28;20205;-69
2021/09/24 04:38:56;;;;;;;79.75;40.00;;;;;;;;;;4952649;28;20193;-69
2021/09/24 04:41:21;;;;;;;79.22;39.90;;;;;;;;;;4958427;28;20180;-69
2021/09/24 04:43:46;;;;;;;72.95;36.95;;;;;;;;;;4951787;28;20191;-69
2021/09/24 04:46:11;;;;;;;59.93;36.03;;;;;;;;;;4952095;28;20197;-69
2021/09/24 04:48:37;;;;;;;77.30;39.65;;;;;;;;;;4951232;28;20438;-69
2021/09/24 04:51:05;;;;;;;70.38;36.22;;;;;;;;;;4955834;28;20231;-69
2021/09/24 04:53:30;;;;;;;69.97;37.83;;;;;;;;;;4951895;28;20542;-69
2021/09/24 04:55:55;;;;;;;67.13;38.03;;;;;;;;;;4951963;28;20192;-69
2021/09/24 04:58:20;;;;;;;84.35;39.25;;;;;;;;;;4937293;28;20247;-68
2021/09/24 05:00:48;;;;;;;74.32;37.05;;;;;;;;;;4954980;28;20185;-69
2021/09/24 05:03:13;;;;;;;71.82;36.45;;;;;;;;;;4948523;28;20173;-69
2021/09/24 05:05:38;;;;;;;83.38;39.22;;;;;;;;;;4961501;28;20211;-69
2021/09/24 05:08:03;;;;;;;75.13;35.87;;;;;;;;;;4974834;23;20447;-73
2021/09/24 05:10:28;;;;;;;77.50;38.03;;;;;;;;;;4987444;28;20642;-73
2021/09/24 05:12:54;;;;;;;64.18;37.88;;;;;;;;;;4991228;28;20175;-74
2021/09/24 05:15:19;;;;;;;61.23;33.73;;;;;;;;;;4994181;28;20221;-74
2021/09/24 05:17:44;;;;;;;66.00;34.70;;;;;;;;;;4997527;28;20508;-74
2021/09/24 05:20:09;;;;;;;71.17;37.00;;;;;;;;;;4991746;28;20587;-73
2021/09/24 05:22:35;;;;;;;77.15;37.90;;;;;;;;;;4990425;28;20420;-74
2021/09/24 05:25:00;;;;;;;73.25;34.92;;;;;;;;;;4991953;28;20265;-71
2021/09/24 05:27:25;;;;;;;80.63;36.20;;;;;;;;;;4995471;28;20576;-74
2021/09/24 05:29:50;;;;;;;79.50;38.85;;;;;;;;;;4976843;28;20187;-74
2021/09/24 05:32:17;;;;;;;68.95;36.53;;;;;;;;;;4994382;28;20571;-73
2021/09/24 05:34:42;;;;;;;62.40;34.25;;;;;;;;;;4989750;28;20190;-73
2021/09/24 05:37:07;;;;;;;74.55;35.50;;;;;;;;;;4995415;28;20211;-74
2021/09/24 05:39:33;;;;;;;73.85;36.00;;;;;;;;;;4990820;28;20310;-74
2021/09/24 05:42:00;;;;;;;69.13;34.35;;;;;;;;;;4989930;28;20206;-74
2021/09/24 05:44:25;;;;;;;59.70;33.67;;;;;;;;;;4993908;28;20297;-72
2021/09/24 05:46:50;;;;;;;64.32;35.45;;;;;;;;;;4991678;28;20182;-74
2021/09/24 05:49:15;;;;;;;69.40;36.43;;;;;;;;;;4975252;28;20206;-73
2021/09/24 05:51:40;;;;;;;59.80;32.83;;;;;;;;;;4992182;28;20428;-73
2021/09/24 05:54:06;;;;;;;67.17;34.30;;;;;;;;;;4992119;28;20442;-73
2021/09/24 05:56:31;;;;;;;61.70;32.05;;;;;;;;;;4970671;28;20526;-73
2021/09/24 05:58:56;;;;;;;60.30;32.60;;;;;;;;;;4992927;28;21291;-73
2021/09/24 06:01:21;;;;;;;74.40;33.33;;;;;;;;;;4992214;28;20218;-74
2021/09/24 06:03:46;;;;;;;55.97;29.90;;;;;;;;;;4990196;28;20179;-74
2021/09/24 06:06:12;;;;;;;56.72;32.45;;;;;;;;;;4995621;28;20721;-73
2021/09/24 06:08:37;;;;;;;55.47;31.60;;;;;;;;;;4989522;28;20210;-74
2021/09/24 06:11:02;;;;;;;54.10;30.70;;;;;;;;;;4994378;28;20218;-73
2021/09/24 06:13:27;;;;;;;52.65;31.55;;;;;;;;;;4993496;28;20170;-74
2021/09/24 06:15:52;;;;;;;52.25;31.20;;;;;;;;;;5001950;28;20318;-74
2021/09/24 06:18:18;;;;;;;51.50;30.15;;;;;;;;;;4991751;28;20222;-73
2021/09/24 06:20:43;;;;;;;46.75;30.05;;;;;;;;;;4991819;28;20179;-74
2021/09/24 06:23:08;;;;;;;48.10;30.27;;;;;;;;;;4996516;28;20802;-73
2021/09/24 06:25:33;;;;;;;48.13;30.75;;;;;;;;;;4980623;28;20725;-73
2021/09/24 06:27:59;;;;;;;49.28;29.63;;;;;;;;;;4989812;28;20277;-73
2021/09/24 06:30:24;;;;;;;51.22;29.80;;;;;;;;;;4994935;28;20714;-74
2021/09/24 06:32:50;;;;;;;42.67;27.75;;;;;;;;;;4991230;28;20205;-71
2021/09/24 06:35:15;;;;;;;44.97;28.23;;;;;;;;;;4990715;28;20298;-74
2021/09/24 06:37:40;;;;;;;58.88;29.67;;;;;;;;;;4989737;28;20218;-71
2021/09/24 06:40:06;;;;;;;44.47;28.40;;;;;;;;;;4992906;28;21551;-72
2021/09/24 06:42:32;;;;;;;48.65;29.20;;;;;;;;;;4995751;28;20225;-71
2021/09/24 06:45:00;;;;;;;50.17;30.83;;;;;;;;;;5006119;28;20177;-73
2021/09/24 06:47:26;;;;;;;43.63;28.35;;;;;;;;;;4974342;28;20191;-74
2021/09/24 06:49:51;;;;;;;47.58;28.25;;;;;;;;;;4989854;28;20256;-71
2021/09/24 06:52:16;;;;;;;49.40;29.15;;;;;;;;;;4975442;28;20207;-73
2021/09/24 06:54:42;;;;;;;42.88;27.98;;;;;;;;;;4993213;28;20717;-73
2021/09/24 06:57:07;;;;;;;37.83;26.52;;;;;;;;;;4990705;28;20213;-73
2021/09/24 06:59:32;;;;;;;41.50;27.80;;;;;;;;;;4992364;28;20312;-74
2021/09/24 07:01:57;;;;;;;45.28;27.08;;;;;;;;;;4992743;28;20183;-71
2021/09/24 07:04:23;;;;;;;46.92;27.73;;;;;;;;;;4989061;28;20600;-73
2021/09/24 07:06:50;;;;;;;43.03;26.10;;;;;;;;;;4988696;28;20226;-74
2021/09/24 07:09:16;;;;;;;40.65;24.90;;;;;;;;;;4993200;28;20618;-71
2021/09/24 07:11:42;;;;;;;39.13;24.27;;;;;;;;;;4992953;28;20179;-74
2021/09/24 07:14:10;;;;;;;41.85;27.02;;;;;;;;;;4975898;28;20274;-74
2021/09/24 07:16:39;;;;;;;35.83;23.98;;;;;;;;;;5003397;28;20685;-73
2021/09/24 07:19:05;;;;;;;36.83;23.95;;;;;;;;;;4989975;28;20229;-72
2021/09/24 07:21:31;;;;;;;37.17;25.55;;;;;;;;;;5009396;28;20179;-72
2021/09/24 07:23:56;;;;;;;31.40;22.52;;;;;;;;;;5008652;28;20233;-71
2021/09/24 07:26:21;;;;;;;30.17;22.98;;;;;;;;;;4995687;28;20615;-73
2021/09/24 07:28:46;;;;;;;34.33;23.90;;;;;;;;;;4991769;28;20199;-73
2021/09/24 07:31:12;;;;;;;35.78;23.98;;;;;;;;;;4992113;28;20421;-72
2021/09/24 07:33:37;;;;;;;29.85;22.50;;;;;;;;;;4990510;28;20603;-72
2021/09/24 07:36:03;;;;;;;30.95;21.70;;;;;;;;;;4989049;28;20187;-73
2021/09/24 07:38:28;;;;;;;32.35;22.67;;;;;;;;;;4995876;28;20718;-72
2021/09/24 07:40:53;;;;;;;30.53;21.80;;;;;;;;;;4993959;28;20270;-73
2021/09/24 07:43:19;;;;;;;29.17;20.80;;;;;;;;;;4991530;28;20416;-73
2021/09/24 07:45:44;;;;;;;27.52;21.65;;;;;;;;;;4997437;28;20328;-73
2021/09/24 07:48:09;;;;;;;33.40;20.50;;;;;;;;;;4997285;28;20232;-73
2021/09/24 07:50:34;;;;;;;25.77;19.30;;;;;;;;;;4992168;28;20558;-73
2021/09/24 07:53:00;;;;;;;27.08;20.42;;;;;;;;;;4994178;28;20187;-72
2021/09/24 07:55:25;;;;;;;24.98;18.63;;;;;;;;;;5000810;28;20657;-72
2021/09/24 07:57:55;;;;;;;27.10;20.20;;;;;;;;;;5001010;28;20641;-72
2021/09/24 08:00:21;;;;;;;25.25;19.77;;;;;;;;;;5002577;28;20173;-72
2021/09/24 08:02:47;;;;;;;25.88;19.00;;;;;;;;;;4998924;28;20178;-72
2021/09/24 08:05:12;;;;;;;25.58;18.42;;;;;;;;;;4993421;28;20167;-74
2021/09/24 08:07:37;;;;;;;29.90;19.90;;;;;;;;;;4991903;28;20221;-73
2021/09/24 08:10:03;;;;;;;21.15;17.13;;;;;;;;;;4998749;28;20657;-73
2021/09/24 08:12:29;;;;;;;22.42;17.92;;;;;;;;;;4983314;28;20284;-74
2021/09/24 08:14:54;;;;;;;22.02;17.25;;;;;;;;;;4988451;28;20289;-72
2021/09/24 08:17:19;;;;;;;22.23;16.67;;;;;;;;;;5006137;28;22112;-73
2021/09/24 08:19:44;;;;;;;24.13;17.42;;;;;;;;;;4993525;28;20270;-72
2021/09/24 08:22:09;;;;;;;22.90;17.20;;;;;;;;;;5000723;28;20564;-74
2021/09/24 08:24:35;;;;;;;19.37;17.17;;;;;;;;;;4990168;28;20431;-73
2021/09/24 08:27:00;;;;;;;26.92;17.95;;;;;;;;;;4992741;28;20574;-73
2021/09/24 08:29:25;;;;;;;25.80;18.10;;;;;;;;;;4994085;28;20298;-73
2021/09/24 08:31:50;;;;;;;25.17;17.33;;;;;;;;;;4998315;28;21097;-72
2021/09/24 08:34:16;;;;;;;21.40;17.02;;;;;;;;;;4995312;28;20519;-72
2021/09/24 08:36:41;;;;;;;21.20;16.67;;;;;;;;;;4993481;28;20206;-71
2021/09/24 08:39:07;;;;;;;17.77;15.80;;;;;;;;;;4991437;28;20209;-72
2021/09/24 08:41:32;;;;;;;18.98;15.43;;;;;;;;;;4992666;28;20957;-72
2021/09/24 08:43:58;;;;;;;21.13;15.43;;;;;;;;;;4992386;28;20226;-72
2021/09/24 08:46:24;;;;;;;20.90;13.43;;;;;;;;;;4993299;28;20180;-71
2021/09/24 08:48:50;;;;;;;16.83;12.57;;;;;;;;;;4993227;28;20271;-71
2021/09/24 08:51:15;;;;;;;17.98;12.65;;;;;;;;;;4991405;28;20590;-72
2021/09/24 08:53:40;;;;;;;14.07;12.53;;;;;;;;;;4990643;28;20179;-71
2021/09/24 08:56:05;;;;;;;17.15;12.88;;;;;;;;;;4992446;28;20817;-71
2021/09/24 08:58:31;;;;;;;14.93;10.27;;;;;;;;;;4997455;28;20219;-71
2021/09/24 09:00:57;;;;;;;13.40;11.27;;;;;;;;;;4993677;28;20190;-72
2021/09/24 09:03:22;;;;;;;12.68;11.38;;;;;;;;;;4999555;28;20373;-72
2021/09/24 09:05:52;;;;;;;12.93;10.25;;;;;;;;;;5007944;28;20517;-71
2021/09/24 09:08:23;;;;;;;13.57;10.75;;;;;;;;;;4993824;28;20460;-72
2021/09/24 09:10:59;;;;;;;14.43;9.82;;;;;;;;;;4994015;28;20552;-73
2021/09/24 09:13:29;;;;;;;11.77;10.57;;;;;;;;;;4994021;28;20275;-71
2021/09/24 09:15:59;;;;;;;23.98;10.82;;;;;;;;;;5000387;28;20210;-73
2021/09/24 09:18:24;;;;;;;13.38;9.57;;;;;;;;;;4990448;28;20210;-72
2021/09/24 09:20:50;;;;;;;14.93;10.05;;;;;;;;;;4993706;28;20176;-73
2021/09/24 09:23:17;;;;;;;15.25;9.25;;;;;;;;;;4994378;28;20187;-72
2021/09/24 09:25:43;;;;;;;13.38;9.25;;;;;;;;;;4995704;28;20182;-72
2021/09/24 09:28:16;;;;;;;9.95;8.52;;;;;;;;;;4996316;28;20207;-72
2021/09/24 09:30:43;;;;;;;13.23;8.98;;;;;;;;;;4998592;28;20186;-72
2021/09/24 09:33:15;;;;;;;9.70;8.60;;;;;;;;;;4992916;28;20180;-72
2021/09/24 09:35:42;;;;;;;10.02;8.95;;;;;;;;;;4989755;28;20262;-72
2021/09/24 09:38:27;;;;;;;13.15;9.27;;;;;;;;;;4992820;28;20870;-71
2021/09/24 09:41:13;;;;;;;11.68;9.95;;;;;;;;;;4983458;28;20237;-71
2021/09/24 09:43:39;;;;;;;12.93;9.68;;;;;;;;;;4993889;28;20207;-73
2021/09/24 09:46:13;;;;;;;13.60;10.23;;;;;;;;;;4996493;28;20776;-72
2021/09/24 09:48:38;;;;;;;13.68;9.85;;;;;;;;;;4991215;28;20225;-72
2021/09/24 09:51:04;;;;;;;11.80;9.05;;;;;;;;;;4991015;28;20186;-72
2021/09/24 09:53:30;;;;;;;12.23;9.10;;;;;;;;;;4992754;28;20651;-73
2021/09/24 09:55:58;;;;;;;11.73;9.18;;;;;;;;;;4996394;28;20209;-71
2021/09/24 09:58:24;;;;;;;10.27;8.73;;;;;;;;;;4998203;28;20215;-72
2021/09/24 10:00:58;;;;;;;11.27;8.32;;;;;;;;;;4995894;28;20191;-72
2021/09/24 10:03:34;;;;;;;10.57;7.93;;;;;;;;;;4994491;28;20797;-71
2021/09/24 10:06:03;;;;;;;11.68;8.23;;;;;;;;;;4993611;28;20191;-71
2021/09/24 10:08:33;;;;;;;14.00;9.35;;;;;;;;;;4987637;28;20223;-71
2021/09/24 10:10:58;;;;;;;9.25;7.85;;;;;;;;;;4995346;28;20198;-72
2021/09/24 10:13:23;;;;;;;9.57;8.57;;;;;;;;;;4991225;28;20187;-72
2021/09/24 10:15:49;;;;;;;11.57;8.15;;;;;;;;;;5000403;28;20428;-72
2021/09/24 10:18:14;;;;;;;12.90;8.95;;;;;;;;;;4993828;28;20222;-72
2021/09/24 10:20:39;;;;;;;13.20;7.80;;;;;;;;;;4996368;28;20175;-73
2021/09/24 10:23:06;;;;;;;9.07;7.90;;;;;;;;;;4992294;28;20424;-73
2021/09/24 10:25:31;;;;;;;12.18;8.48;;;;;;;;;;4994342;28;21382;-72
2021/09/24 10:27:56;;;;;;;11.88;8.73;;;;;;;;;;4988792;28;20210;-72
2021/09/24 10:30:25;;;;;;;12.98;7.78;;;;;;;;;;4991268;28;20179;-72
2021/09/24 10:32:57;;;;;;;9.60;8.50;;;;;;;;;;4993258;28;20187;-72
2021/09/24 10:35:42;;;;;;;11.00;8.65;;;;;;;;;;4990492;28;20194;-73
2021/09/24 10:38:08;;;;;;;10.77;7.75;;;;;;;;;;4991862;28;20244;-72
2021/09/24 10:40:33;;;;;;;10.02;8.25;;;;;;;;;;4994447;28;20675;-72
2021/09/24 10:43:00;;;;;;;10.02;7.25;;;;;;;;;;4993510;28;20179;-72
2021/09/24 10:45:34;;;;;;;8.02;7.22;;;;;;;;;;4975874;28;20171;-73
2021/09/24 10:48:03;;;;;;;13.77;8.48;;;;;;;;;;4992891;28;20615;-72
2021/09/24 10:50:34;;;;;;;13.30;7.72;;;;;;;;;;4990971;28;20574;-72
2021/09/24 10:55:34;;;;;;;11.45;8.40;;;;;;;;;;4991592;28;20660;-72
2021/09/24 10:58:01;;;;;;;12.55;8.60;;;;;;;;;;4995451;28;20239;-72
2021/09/24 11:00:28;;;;;;;11.63;8.10;;;;;;;;;;4994049;28;20275;-72
2021/09/24 11:03:16;;;;;;;11.20;8.65;;;;;;;;;;4992513;28;20708;-72
2021/09/24 11:05:58;;;;;;;12.32;9.00;;;;;;;;;;4989217;28;20187;-72
2021/09/24 11:08:32;;;;;;;9.25;8.35;;;;;;;;;;4993085;28;20273;-69
2021/09/24 11:11:03;;;;;;;10.40;9.30;;;;;;;;;;4993702;28;20191;-70
2021/09/24 11:13:29;;;;;;;10.48;9.07;;;;;;;;;;4977318;28;20214;-70
2021/09/24 11:16:02;;;;;;;10.57;9.50;;;;;;;;;;5001548;28;20201;-69
2021/09/24 11:18:47;;;;;;;11.05;8.35;;;;;;;;;;4999307;28;20230;-69
2021/09/24 11:21:12;;;;;;;13.05;9.70;;;;;;;;;;5003811;28;20186;-70
2021/09/24 11:23:37;;;;;;;10.07;8.55;;;;;;;;;;4999303;28;20178;-69
2021/09/24 11:26:07;;;;;;;10.63;8.43;;;;;;;;;;5002678;28;20183;-70
2021/09/24 11:28:32;;;;;;;10.07;7.95;;;;;;;;;;4993970;28;20199;-70
2021/09/24 11:30:58;;;;;;;12.18;6.97;;;;;;;;;;4999920;28;20184;-70
2021/09/24 11:33:55;;;;;;;9.10;8.20;;;;;;;;;;4981675;28;20178;-70
2021/09/24 11:36:56;;;;;;;10.15;7.88;;;;;;;;;;4955753;28;20680;-70
2021/09/24 11:39:21;;;;;;;8.93;7.13;;;;;;;;;;4910405;29;20297;-71
2021/09/24 11:41:47;;;;;;;10.93;6.43;;;;;;;;;;4979487;28;20285;-70
2021/09/24 11:44:12;;;;;;;12.37;6.17;;;;;;;;;;4994172;28;20227;-71
2021/09/24 11:46:37;;;;;;;7.80;6.70;;;;;;;;;;5002224;28;20427;-70
2021/09/24 11:49:02;;;;;;;9.73;5.60;;;;;;;;;;5000281;28;20233;-70
2021/09/24 11:51:28;;;;;;;6.23;5.57;;;;;;;;;;4999964;28;20944;-72
2021/09/24 11:53:55;;;;;;;5.47;4.00;;;;;;;;;;4977563;28;20539;-69
2021/09/24 11:56:30;;;;;;;6.80;5.20;;;;;;;;;;5003639;28;20427;-70
2021/09/24 11:59:00;;;;;;;10.35;5.75;;;;;;;;;;5003932;28;20289;-70
2021/09/24 12:01:25;;;;;;;6.03;5.50;;;;;;;;;;5000843;28;20195;-71
2021/09/24 12:03:55;;;;;;;7.10;6.03;;;;;;;;;;5000803;28;20204;-71
2021/09/24 12:06:22;;;;;;;10.07;7.35;;;;;;;;;;4994247;28;20683;-70
2021/09/24 12:08:48;;;;;;;9.27;7.22;;;;;;;;;;4996508;28;20214;-69
2021/09/24 12:11:15;;;;;;;6.97;6.07;;;;;;;;;;4995581;28;20186;-69
2021/09/24 12:13:43;;;;;;;10.85;6.25;;;;;;;;;;5011015;28;20193;-69
2021/09/24 12:16:09;;;;;;;6.63;5.88;;;;;;;;;;4996638;28;20183;-68
2021/09/24 12:18:47;;;;;;;8.13;5.78;;;;;;;;;;4996702;28;20207;-69
2021/09/24 12:21:13;;;;;;;8.48;5.45;;;;;;;;;;4984763;28;20194;-70
2021/09/24 12:23:38;;;;;;;8.05;4.40;;;;;;;;;;4994790;28;20170;-70
2021/09/24 12:26:04;;;;;;;10.68;4.68;;;;;;;;;;4995935;28;20718;-69
2021/09/24 12:28:30;;;;;;;6.90;5.38;;;;;;;;;;4995095;28;20203;-70
2021/09/24 12:30:55;;;;;;;7.47;3.78;;;;;;;;;;4997170;28;20529;-68
2021/09/24 12:33:22;;;;;;;5.03;2.92;;;;;;;;;;5006106;28;20479;-70
2021/09/24 12:36:00;;;;;;;6.07;3.20;;;;;;;;;;4996565;28;20198;-70
2021/09/24 12:38:33;;;;;;;3.47;2.33;;;;;;;;;;4992619;28;20694;-69
2021/09/24 12:41:24;;;;;;;3.08;1.98;;;;;;;;;;4998945;28;20183;-70
2021/09/24 12:43:50;;;;;;;2.80;1.52;;;;;;;;;;4991796;28;20700;-70
2021/09/24 12:46:15;;;;;;;5.03;1.77;;;;;;;;;;4995754;28;20186;-70
2021/09/24 12:48:42;;;;;;;3.10;1.73;;;;;;;;;;4996372;28;20206;-70
2021/09/24 12:51:12;;;;;;;2.17;1.10;;;;;;;;;;5002353;28;20190;-69
2021/09/24 12:53:38;;;;;;;2.92;1.45;;;;;;;;;;4992515;28;20193;-70
2021/09/24 12:56:03;;;;;;;1.85;1.40;;;;;;;;;;4992113;28;20183;-70
2021/09/24 12:58:31;;;;;;;2.53;1.02;;;;;;;;;;4993627;28;20211;-70
2021/09/24 13:00:57;;;;;;;2.35;1.10;;;;;;;;;;4995456;28;20236;-70
2021/09/24 13:03:26;;;;;;;1.90;1.10;;;;;;;;;;4992910;28;20666;-70
2021/09/24 13:05:51;;;;;;;2.10;1.00;;;;;;;;;;4974472;28;20194;-68
2021/09/24 13:08:18;;;;;;;3.33;1.03;;;;;;;;;;4991601;28;20222;-70
2021/09/24 13:10:43;;;;;;;2.88;1.02;;;;;;;;;;4995682;28;20436;-71
2021/09/24 13:13:08;;;;;;;2.05;1.00;;;;;;;;;;4997563;28;20305;-70
2021/09/24 13:15:33;;;;;;;2.45;0.73;;;;;;;;;;5007010;28;20290;-69
2021/09/24 13:18:03;;;;;;;2.60;0.93;;;;;;;;;;4991402;28;20298;-69
2021/09/24 13:20:30;;;;;;;1.92;0.90;;;;;;;;;;4994656;28;20262;-69
2021/09/24 13:22:55;;;;;;;1.75;0.90;;;;;;;;;;4992852;28;20171;-70
2021/09/24 13:25:20;;;;;;;2.43;0.90;;;;;;;;;;4999703;28;20214;-69
2021/09/24 13:27:46;;;;;;;3.20;0.90;;;;;;;;;;4996381;28;20993;-70
2021/09/24 13:30:11;;;;;;;2.23;1.37;;;;;;;;;;4991346;28;20432;-68
2021/09/24 13:32:36;;;;;;;2.53;1.20;;;;;;;;;;4991232;28;20440;-70
2021/09/24 13:35:03;;;;;;;1.63;1.10;;;;;;;;;;4992136;28;20640;-70
2021/09/24 13:37:28;;;;;;;2.15;1.10;;;;;;;;;;4994990;28;20963;-69
2021/09/24 13:39:53;;;;;;;3.90;1.37;;;;;;;;;;4992008;28;20266;-69
2021/09/24 13:42:18;;;;;;;3.17;1.33;;;;;;;;;;4991592;28;20490;-70
2021/09/24 13:44:43;;;;;;;1.77;1.10;;;;;;;;;;4991469;28;20255;-73
2021/09/24 13:47:09;;;;;;;4.30;1.77;;;;;;;;;;4998636;28;20433;-69
2021/09/24 13:49:35;;;;;;;3.35;1.40;;;;;;;;;;4994679;28;20257;-72
2021/09/24 13:52:06;;;;;;;2.50;1.70;;;;;;;;;;5072608;27;21173;-71
2021/09/24 13:54:31;;;;;;;4.13;1.73;;;;;;;;;;5076971;28;20201;-69
2021/09/24 13:56:57;;;;;;;1.58;1.25;;;;;;;;;;5071981;28;20235;-68
2021/09/24 13:59:22;;;;;;;3.72;1.58;;;;;;;;;;5065440;28;20204;-71
2021/09/24 14:01:47;;;;;;;4.97;1.80;;;;;;;;;;5071420;28;20203;-69
2021/09/24 14:04:12;;;;;;;3.35;1.65;;;;;;;;;;5065287;28;20189;-69
2021/09/24 14:06:37;;;;;;;2.45;1.55;;;;;;;;;;5042734;22;20244;-70
2021/09/24 14:09:03;;;;;;;4.77;2.00;;;;;;;;;;5014418;28;20186;-69
2021/09/24 14:11:28;;;;;;;5.57;2.20;;;;;;;;;;5010527;28;20485;-71
2021/09/24 14:13:53;;;;;;;2.60;2.30;;;;;;;;;;5017518;28;20928;-69
2021/09/24 14:16:18;;;;;;;2.28;2.08;;;;;;;;;;5013992;28;20207;-69
2021/09/24 14:18:44;;;;;;;5.35;2.92;;;;;;;;;;5008135;28;20213;-69
2021/09/24 14:21:09;;;;;;;7.75;3.00;;;;;;;;;;5012261;28;20218;-69
2021/09/24 14:23:34;;;;;;;3.28;1.98;;;;;;;;;;5015583;28;20252;-69
2021/09/24 14:25:59;;;;;;;2.40;1.90;;;;;;;;;;5012636;28;20241;-69